createdAt,value
2019-01-06T00:01:21.933Z,11.13
2019-01-06T00:04:26.048Z,10.43
2019-01-06T00:07:20.401Z,10.83
2019-01-06T00:10:21.348Z,9.70
2019-01-06T00:13:13.042Z,10.37
2019-01-06T00:16:01.296Z,11.40
2019-01-06T00:18:56.445Z,11.97
2019-01-06T00:21:39.689Z,11.77
2019-01-06T00:24:40.637Z,11.67
2019-01-06T00:27:35.279Z,10.87
2019-01-06T00:30:26.730Z,12.47
2019-01-06T00:33:12.294Z,12.43
2019-01-06T00:36:15.832Z,12.63
2019-01-06T00:39:16.309Z,12.57
2019-01-06T00:42:04.527Z,13.17
2019-01-06T00:44:55.607Z,12.43
2019-01-06T00:47:42.741Z,12.87
2019-01-06T00:50:34.490Z,12.70
2019-01-06T00:53:32.359Z,14.60
2019-01-06T00:56:24.454Z,14.60
2019-01-06T00:59:12.126Z,13.13
2019-01-06T01:02:03.971Z,13.73
2019-01-06T01:04:51.016Z,15.03
2019-01-06T01:07:55.100Z,15.30
2019-01-06T01:10:42.662Z,14.27
2019-01-06T01:13:26.870Z,13.37
2019-01-06T01:16:27.778Z,15.20
2019-01-06T01:19:12.567Z,13.20
2019-01-06T01:22:01.312Z,14.63
2019-01-06T01:24:49.887Z,13.30
2019-01-06T01:27:44.770Z,14.20
2019-01-06T01:30:31.596Z,14.87
2019-01-06T01:33:19.367Z,16.77
2019-01-06T01:36:06.093Z,14.93
2019-01-06T01:39:03.851Z,15.90
2019-01-06T01:41:53.544Z,15.10
2019-01-06T01:45:00.526Z,15.20
2019-01-06T01:48:06.726Z,14.77
2019-01-06T01:50:47.435Z,14.60
2019-01-06T01:53:32.985Z,15.53
2019-01-06T01:56:33.922Z,16.60
2019-01-06T01:59:21.057Z,16.03
2019-01-06T02:02:08.147Z,15.90
2019-01-06T02:04:55.999Z,15.63
2019-01-06T02:07:43.292Z,15.20
2019-01-06T02:10:34.665Z,13.70
2019-01-06T02:13:41.919Z,15.27
2019-01-06T02:16:30.086Z,14.67
2019-01-06T02:19:27.548Z,14.03
2019-01-06T02:22:15.083Z,15.50
2019-01-06T02:25:02.492Z,14.30
2019-01-06T02:28:09.310Z,15.30
2019-01-06T02:30:56.840Z,14.40
2019-01-06T02:33:49.068Z,13.70
2019-01-06T02:36:37.703Z,15.13
2019-01-06T02:39:25.376Z,13.40
2019-01-06T02:42:20.400Z,13.90
2019-01-06T02:45:15.193Z,14.47
2019-01-06T02:48:18.506Z,13.43
2019-01-06T02:51:05.099Z,12.77
2019-01-06T02:53:55.956Z,13.57
2019-01-06T02:56:43.648Z,14.63
2019-01-06T02:59:37.325Z,14.00
2019-01-06T03:02:23.787Z,12.43
2019-01-06T03:05:31.307Z,12.50
2019-01-06T03:08:32.202Z,11.50
2019-01-06T03:11:19.806Z,12.93
2019-01-06T03:14:16.868Z,12.20
2019-01-06T03:17:14.424Z,11.87
2019-01-06T03:20:01.087Z,10.97
2019-01-06T03:22:48.284Z,11.13
2019-01-06T03:25:35.762Z,10.87
2019-01-06T03:28:36.627Z,12.80
2019-01-06T03:31:25.186Z,11.80
2019-01-06T03:34:20.797Z,12.30
2019-01-06T03:37:19.373Z,11.90
2019-01-06T03:40:07.165Z,11.90
2019-01-06T03:42:56.534Z,12.47
2019-01-06T03:46:00.567Z,13.67
2019-01-06T03:48:55.010Z,12.33
2019-01-06T03:51:55.290Z,12.47
2019-01-06T03:54:46.866Z,11.60
2019-01-06T03:57:34.461Z,14.17
2019-01-06T04:00:26.287Z,13.17
2019-01-06T04:03:07.173Z,12.80
2019-01-06T04:05:51.482Z,14.30
2019-01-06T04:08:52.132Z,14.13
2019-01-06T04:11:40.863Z,12.93
2019-01-06T04:14:28.300Z,14.07
2019-01-06T04:17:15.109Z,12.23
2019-01-06T04:20:10.308Z,12.73
2019-01-06T04:23:04.646Z,12.43
2019-01-06T04:26:10.369Z,13.10
2019-01-06T04:29:04.798Z,13.13
2019-01-06T04:32:02.264Z,12.27
2019-01-06T04:35:00.356Z,13.00
2019-01-06T04:37:51.574Z,12.87
2019-01-06T04:40:38.469Z,12.37
2019-01-06T04:43:30.326Z,12.83
2019-01-06T04:46:19.099Z,12.40
2019-01-06T04:49:26.033Z,13.70
2019-01-06T04:52:26.195Z,13.10
2019-01-06T04:55:13.859Z,14.07
2019-01-06T04:58:01.411Z,13.10
2019-01-06T05:00:49.242Z,14.33
2019-01-06T05:03:53.326Z,12.90
2019-01-06T05:06:41.509Z,13.23
2019-01-06T05:09:28.845Z,13.27
2019-01-06T05:12:15.950Z,14.10
2019-01-06T05:15:16.735Z,17.50
2019-01-06T05:18:04.037Z,16.03
2019-01-06T05:20:51.475Z,22.50
2019-01-06T05:23:39.046Z,17.90
2019-01-06T05:26:30.816Z,16.87
2019-01-06T05:29:21.950Z,16.67
2019-01-06T05:32:13.304Z,20.80
2019-01-06T05:35:06.082Z,18.03
2019-01-06T05:38:03.437Z,17.50
2019-01-06T05:40:54.563Z,19.07
2019-01-06T05:43:42.452Z,18.80
2019-01-06T05:46:33.478Z,17.47
2019-01-06T05:49:20.258Z,21.03
2019-01-06T05:52:21.061Z,16.60
2019-01-06T05:55:03.295Z,16.17
2019-01-06T05:57:53.352Z,17.30
2019-01-06T06:00:36.334Z,15.03
2019-01-06T06:03:13.893Z,15.93
2019-01-06T06:06:03.399Z,17.33
2019-01-06T06:09:00.764Z,15.70
2019-01-06T06:11:48.023Z,15.67
2019-01-06T06:14:35.218Z,17.60
2019-01-06T06:17:22.549Z,15.67
2019-01-06T06:20:14.258Z,16.80
2019-01-06T06:23:04.428Z,13.63
2019-01-06T06:26:02.551Z,15.53
2019-01-06T06:28:49.284Z,14.37
2019-01-06T06:31:37.822Z,13.73
2019-01-06T06:34:38.526Z,13.20
2019-01-06T06:37:27.133Z,15.00
2019-01-06T06:40:14.362Z,14.67
2019-01-06T06:43:18.256Z,16.00
2019-01-06T06:46:04.973Z,14.73
2019-01-06T06:48:52.532Z,16.00
2019-01-06T06:51:40.054Z,13.70
2019-01-06T06:54:44.752Z,14.50
2019-01-06T06:58:15.270Z,14.97
2019-01-06T07:04:25.257Z,17.00
2019-01-06T07:07:13.453Z,18.00
2019-01-06T07:10:02.851Z,17.77
2019-01-06T07:12:56.921Z,16.10
2019-01-06T07:15:51.516Z,18.10
2019-01-06T07:18:47.299Z,20.63
2019-01-06T07:21:44.871Z,15.40
2019-01-06T07:24:42.570Z,15.00
2019-01-06T07:27:43.247Z,14.37
2019-01-06T07:30:34.775Z,14.10
2019-01-06T07:33:11.180Z,13.50
2019-01-06T07:36:05.460Z,12.87
2019-01-06T07:38:57.125Z,15.23
2019-01-06T07:41:55.103Z,15.50
2019-01-06T07:44:55.817Z,14.60
2019-01-06T07:47:44.182Z,12.50
2019-01-06T07:50:32.820Z,13.60
2019-01-06T07:53:20.393Z,12.50
2019-01-06T07:56:07.434Z,11.17
2019-01-06T07:58:50.188Z,10.07
2019-01-06T08:01:44.425Z,10.90
2019-01-06T08:04:41.858Z,11.50
2019-01-06T08:07:26.895Z,10.47
2019-01-06T08:10:13.221Z,11.37
2019-01-06T08:12:58.713Z,11.27
2019-01-06T08:16:05.428Z,8.83
2019-01-06T08:19:09.122Z,8.60
2019-01-06T08:22:03.125Z,9.50
2019-01-06T08:24:50.755Z,10.33
2019-01-06T08:27:48.414Z,14.13
2019-01-06T08:30:49.903Z,19.83
2019-01-06T08:33:44.456Z,12.97
2019-01-06T08:36:31.902Z,9.90
2019-01-06T08:39:14.304Z,11.10
2019-01-06T08:41:59.697Z,9.23
2019-01-06T08:44:45.237Z,9.10
2019-01-06T08:47:34.267Z,8.10
2019-01-06T08:50:21.190Z,7.37
2019-01-06T08:53:09.321Z,9.27
2019-01-06T08:55:57.814Z,8.90
2019-01-06T08:59:01.473Z,18.00
2019-01-06T09:01:48.511Z,10.13
2019-01-06T09:04:37.113Z,14.03
2019-01-06T09:07:32.282Z,11.23
2019-01-06T09:10:27.411Z,10.87
2019-01-06T09:13:09.556Z,7.83
2019-01-06T09:15:56.675Z,7.63
2019-01-06T09:18:44.326Z,8.70
2019-01-06T09:21:31.984Z,8.73
2019-01-06T09:24:19.084Z,7.77
2019-01-06T09:27:08.669Z,9.63
2019-01-06T09:29:55.867Z,8.67
2019-01-06T09:32:51.413Z,8.43
2019-01-06T09:35:38.997Z,8.87
2019-01-06T09:38:28.099Z,8.60
2019-01-06T09:41:15.650Z,9.73
2019-01-06T09:43:57.888Z,8.90
2019-01-06T09:46:47.065Z,10.00
2019-01-06T09:49:38.207Z,9.60
2019-01-06T09:52:25.770Z,10.80
2019-01-06T09:55:13.229Z,11.40
2019-01-06T09:58:00.756Z,9.30
2019-01-06T10:01:04.961Z,10.40
2019-01-06T10:03:56.384Z,9.97
2019-01-06T10:06:45.096Z,11.03
2019-01-06T10:09:34.127Z,10.20
2019-01-06T10:12:31.396Z,10.80
2019-01-06T10:15:19.919Z,10.73
2019-01-06T10:18:23.234Z,11.17
2019-01-06T10:21:10.500Z,9.20
2019-01-06T10:23:58.499Z,8.70
2019-01-06T10:27:02.209Z,11.13
2019-01-06T10:29:51.383Z,9.90
2019-01-06T10:32:38.667Z,8.33
2019-01-06T10:35:36.818Z,7.17
2019-01-06T10:38:37.254Z,7.03
2019-01-06T10:41:35.128Z,6.43
2019-01-06T10:44:33.257Z,7.03
2019-01-06T10:47:25.212Z,8.03
2019-01-06T10:50:22.787Z,7.17
2019-01-06T10:53:25.230Z,7.20
2019-01-06T10:56:21.803Z,7.40
2019-01-06T10:59:17.324Z,6.70
2019-01-06T11:02:08.960Z,7.20
2019-01-06T11:04:59.598Z,7.17
2019-01-06T11:08:02.853Z,7.53
2019-01-06T11:10:54.047Z,5.60
2019-01-06T11:13:42.230Z,6.10
2019-01-06T11:16:45.821Z,5.77
2019-01-06T11:19:33.262Z,6.00
2019-01-06T11:22:34.991Z,4.70
2019-01-06T11:25:22.598Z,4.17
2019-01-06T11:28:29.182Z,3.40
2019-01-06T11:31:24.034Z,3.50
2019-01-06T11:34:12.382Z,3.47
2019-01-06T11:37:07.544Z,2.50
2019-01-06T11:39:55.721Z,2.60
2019-01-06T11:42:43.040Z,2.33
2019-01-06T11:45:36.292Z,2.20
2019-01-06T11:48:24.602Z,3.00
2019-01-06T11:51:26.167Z,2.30
2019-01-06T11:54:13.454Z,2.17
2019-01-06T11:57:01.206Z,1.60
2019-01-06T11:59:48.324Z,1.73
2019-01-06T12:02:40.024Z,2.17
2019-01-06T12:05:34.540Z,1.90
2019-01-06T12:08:21.966Z,1.80
2019-01-06T12:11:07.779Z,1.80
2019-01-06T12:13:55.576Z,2.00
2019-01-06T12:16:37.518Z,2.50
2019-01-06T12:19:33.506Z,2.47
2019-01-06T12:22:16.599Z,2.70
2019-01-06T12:25:20.216Z,3.30
2019-01-06T12:28:14.708Z,2.67
2019-01-06T12:31:12.193Z,2.57
2019-01-06T12:34:00.634Z,2.40
2019-01-06T12:36:48.163Z,1.80
2019-01-06T12:39:35.479Z,3.00
2019-01-06T12:42:24.036Z,3.23
2019-01-06T12:45:20.838Z,3.77
2019-01-06T12:48:08.929Z,2.73
2019-01-06T12:50:57.375Z,1.80
2019-01-06T12:53:48.840Z,2.10
2019-01-06T12:56:36.227Z,1.47
2019-01-06T12:59:24.158Z,1.00
2019-01-06T13:02:13.430Z,1.53
2019-01-06T13:05:00.525Z,3.00
2019-01-06T13:07:52.164Z,2.57
2019-01-06T13:10:44.033Z,2.00
2019-01-06T13:13:45.076Z,1.10
2019-01-06T13:16:35.191Z,1.60
2019-01-06T13:19:24.303Z,1.43
2019-01-06T13:22:21.884Z,1.20
2019-01-06T13:25:13.010Z,1.30
2019-01-06T13:28:07.809Z,1.60
2019-01-06T13:31:02.816Z,1.53
2019-01-06T13:33:51.644Z,1.73
2019-01-06T13:36:43.867Z,1.20
2019-01-06T13:39:34.994Z,1.20
2019-01-06T13:42:16.416Z,1.30
2019-01-06T13:45:06.277Z,1.73
2019-01-06T13:47:53.877Z,1.90
2019-01-06T13:50:41.623Z,1.27
2019-01-06T13:53:45.840Z,1.50
2019-01-06T13:56:36.787Z,1.73
2019-01-06T13:59:44.464Z,1.70
2019-01-06T14:02:32.538Z,1.63
2019-01-06T14:05:37.412Z,1.70
2019-01-06T14:08:24.607Z,2.50
2019-01-06T14:11:12.049Z,1.70
2019-01-06T14:14:06.203Z,1.97
2019-01-06T14:16:53.562Z,1.93
2019-01-06T14:19:54.085Z,1.33
2019-01-06T14:22:53.760Z,1.50
2019-01-06T14:25:57.979Z,1.57
2019-01-06T14:28:47.179Z,1.80
2019-01-06T14:31:34.861Z,1.70
2019-01-06T14:34:22.310Z,1.90
2019-01-06T14:37:08.548Z,1.70
2019-01-06T14:40:03.741Z,2.33
2019-01-06T14:43:11.056Z,3.20
2019-01-06T14:46:06.151Z,2.53
2019-01-06T14:49:00.840Z,2.90
2019-01-06T14:52:00.195Z,2.33
2019-01-06T14:54:54.826Z,2.30
2019-01-06T14:57:46.724Z,2.67
2019-01-06T15:00:35.510Z,3.03
2019-01-06T15:03:24.451Z,2.90
2019-01-06T15:06:18.902Z,3.30
2019-01-06T15:09:07.546Z,2.83
2019-01-06T15:12:14.480Z,3.13
2019-01-06T15:17:55.326Z,2.10
2019-01-06T15:20:43.642Z,2.20
2019-01-06T15:23:26.464Z,2.20
2019-01-06T15:26:18.613Z,2.80
2019-01-06T15:29:12.689Z,2.70
2019-01-06T15:32:06.777Z,2.17
2019-01-06T15:34:54.260Z,1.90
2019-01-06T15:37:48.594Z,1.70
2019-01-06T15:40:35.896Z,2.00
2019-01-06T15:43:36.783Z,2.00
2019-01-06T15:46:24.526Z,2.27
2019-01-06T15:49:25.475Z,2.33
2019-01-06T15:52:20.174Z,2.67
2019-01-06T15:55:08.396Z,2.10
2019-01-06T15:57:56.272Z,2.27
2019-01-06T16:00:44.988Z,2.50
2019-01-06T16:03:31.911Z,2.53
2019-01-06T16:06:38.344Z,2.07
2019-01-06T16:09:45.847Z,2.40
2019-01-06T16:12:33.024Z,2.30
2019-01-06T16:15:19.935Z,2.77
2019-01-06T16:18:08.891Z,3.13
2019-01-06T16:21:00.464Z,2.10
2019-01-06T16:24:03.686Z,2.10
2019-01-06T16:26:55.155Z,2.00
2019-01-06T16:30:00.399Z,2.83
2019-01-06T16:32:49.095Z,2.57
2019-01-06T16:35:36.877Z,3.20
2019-01-06T16:38:24.299Z,3.60
2019-01-06T16:41:15.978Z,4.20
2019-01-06T16:44:11.692Z,3.50
2019-01-06T16:46:59.470Z,3.30
2019-01-06T16:49:56.966Z,2.40
2019-01-06T16:53:01.229Z,2.80
2019-01-06T16:55:59.403Z,3.00
2019-01-06T16:58:46.735Z,3.40
2019-01-06T17:01:34.545Z,4.33
2019-01-06T17:04:41.116Z,5.37
2019-01-06T17:07:28.904Z,3.90
2019-01-06T17:10:17.713Z,5.30
2019-01-06T17:13:04.956Z,4.70
2019-01-06T17:15:52.156Z,6.23
2019-01-06T17:18:42.588Z,5.73
2019-01-06T17:21:29.777Z,7.70
2019-01-06T17:24:17.094Z,6.47
2019-01-06T17:27:01.607Z,5.40
2019-01-06T17:29:50.402Z,5.00
2019-01-06T17:32:40.154Z,5.50
2019-01-06T17:35:29.837Z,4.63
2019-01-06T17:38:18.529Z,4.33
2019-01-06T17:41:06.059Z,3.97
2019-01-06T17:43:59.758Z,5.10
2019-01-06T17:46:57.101Z,4.93
2019-01-06T17:49:44.918Z,4.53
2019-01-06T17:52:33.464Z,4.43
2019-01-06T17:55:22.107Z,3.80
2019-01-06T17:58:09.026Z,4.87
2019-01-06T18:01:03.311Z,5.07
2019-01-06T18:03:58.446Z,5.50
2019-01-06T18:06:45.753Z,5.70
2019-01-06T18:09:32.870Z,5.53
2019-01-06T18:12:19.962Z,6.03
2019-01-06T18:15:17.079Z,6.20
2019-01-06T18:18:04.802Z,6.80
2019-01-06T18:21:02.891Z,6.40
2019-01-06T18:23:50.031Z,7.13
2019-01-06T18:26:41.651Z,7.27
2019-01-06T18:29:28.528Z,7.13
2019-01-06T18:32:19.450Z,6.97
2019-01-06T18:35:12.188Z,6.93
2019-01-06T18:37:58.412Z,7.50
2019-01-06T18:40:45.482Z,8.43
2019-01-06T18:43:32.531Z,7.50
2019-01-06T18:46:36.335Z,7.87
2019-01-06T18:49:23.796Z,7.90
2019-01-06T18:52:24.462Z,7.10
2019-01-06T18:55:19.380Z,7.90
2019-01-06T18:58:23.079Z,9.47
2019-01-06T19:01:10.116Z,9.57
2019-01-06T19:04:10.503Z,10.00
2019-01-06T19:06:53.594Z,8.27
2019-01-06T19:09:44.965Z,8.40
2019-01-06T19:12:37.869Z,6.73
2019-01-06T19:15:24.985Z,7.17
2019-01-06T19:18:13.888Z,7.43
2019-01-06T19:21:01.282Z,6.80
2019-01-06T19:23:49.079Z,6.67
2019-01-06T19:26:41.870Z,7.63
2019-01-06T19:29:44.676Z,6.43
2019-01-06T19:32:37.248Z,6.33
2019-01-06T19:35:26.119Z,6.07
2019-01-06T19:38:17.592Z,6.37
2019-01-06T19:41:24.693Z,6.70
2019-01-06T19:44:25.649Z,6.07
2019-01-06T19:47:32.369Z,6.00
2019-01-06T19:50:19.883Z,5.60
2019-01-06T19:53:11.303Z,6.30
2019-01-06T19:56:09.508Z,5.73
2019-01-06T19:59:07.097Z,6.50
2019-01-06T20:01:47.585Z,5.80
2019-01-06T20:04:54.739Z,5.10
2019-01-06T20:07:52.356Z,5.80
2019-01-06T20:10:53.732Z,4.90
2019-01-06T20:13:35.392Z,4.63
2019-01-06T20:16:42.522Z,5.17
2019-01-06T20:19:33.949Z,6.23
2019-01-06T20:22:28.152Z,4.93
2019-01-06T20:25:15.714Z,4.60
2019-01-06T20:28:03.520Z,5.50
2019-01-06T20:31:04.120Z,4.93
2019-01-06T20:33:56.997Z,5.10
2019-01-06T20:36:57.341Z,5.07
2019-01-06T20:39:53.849Z,5.77
2019-01-06T20:42:38.422Z,5.90
2019-01-06T20:45:29.568Z,5.33
2019-01-06T20:48:17.317Z,5.60
2019-01-06T20:51:24.614Z,4.67
2019-01-06T20:54:12.500Z,5.80
2019-01-06T20:57:00.056Z,6.10
2019-01-06T20:59:46.250Z,5.53
2019-01-06T21:02:41.077Z,6.43
2019-01-06T21:05:38.955Z,5.90
2019-01-06T21:08:29.832Z,5.53
2019-01-06T21:11:16.750Z,7.10
2019-01-06T21:14:03.740Z,5.87
2019-01-06T21:16:52.031Z,6.40
2019-01-06T21:19:39.605Z,5.80
2019-01-06T21:22:34.284Z,5.60
2019-01-06T21:25:40.572Z,7.13
2019-01-06T21:28:28.854Z,6.70
2019-01-06T21:31:26.161Z,6.80
2019-01-06T21:34:14.458Z,6.53
2019-01-06T21:37:01.834Z,8.50
2019-01-06T21:39:43.704Z,5.97
2019-01-06T21:42:30.775Z,6.03
2019-01-06T21:45:25.583Z,5.50
2019-01-06T21:48:20.200Z,5.60
2019-01-06T21:51:08.040Z,5.77
2019-01-06T21:54:03.601Z,5.63
2019-01-06T21:56:57.960Z,5.40
2019-01-06T21:59:45.508Z,5.93
2019-01-06T22:02:40.223Z,5.00
2019-01-06T22:05:27.410Z,5.43
2019-01-06T22:08:31.490Z,4.43
2019-01-06T22:11:19.752Z,5.17
2019-01-06T22:14:07.323Z,4.10
2019-01-06T22:16:50.428Z,4.90
2019-01-06T22:19:51.386Z,3.90
2019-01-06T22:22:51.946Z,4.50
2019-01-06T22:25:38.968Z,4.60
2019-01-06T22:28:36.614Z,4.37
2019-01-06T22:31:25.319Z,4.77
2019-01-06T22:34:13.468Z,4.53
2019-01-06T22:37:00.378Z,4.17
2019-01-06T22:39:58.324Z,5.70
2019-01-06T22:42:45.653Z,6.07
2019-01-06T22:45:37.200Z,4.03
2019-01-06T22:48:24.411Z,6.07
2019-01-06T22:51:15.610Z,5.90
2019-01-06T22:54:13.352Z,5.77
2019-01-06T22:57:00.767Z,5.60
2019-01-06T23:00:07.627Z,5.73
2019-01-06T23:03:04.678Z,4.90
2019-01-06T23:06:05.519Z,4.13
2019-01-06T23:08:44.588Z,4.80
2019-01-06T23:11:44.965Z,4.53
2019-01-06T23:14:32.686Z,5.00
2019-01-06T23:17:39.478Z,5.77
2019-01-06T23:20:28.889Z,4.20
2019-01-06T23:23:16.240Z,4.43
2019-01-06T23:26:04.846Z,4.50
2019-01-06T23:29:09.066Z,4.50
2019-01-06T23:31:57.267Z,4.43
2019-01-06T23:34:57.852Z,5.17
2019-01-06T23:37:56.893Z,4.20
2019-01-06T23:40:47.595Z,5.00
2019-01-06T23:43:40.790Z,5.27
2019-01-06T23:46:32.167Z,4.90
2019-01-06T23:49:34.059Z,5.30
2019-01-06T23:52:34.384Z,5.83
2019-01-06T23:55:21.426Z,4.60
2019-01-06T23:58:08.623Z,5.50
